createdAt,value
2023-08-13T05:25:57.027Z,3.40
2023-08-13T05:31:04.375Z,2.70
2023-08-13T05:36:07.947Z,3.08
2023-08-13T05:41:10.738Z,2.30
2023-08-13T05:46:13.556Z,4.28
2023-08-13T05:51:17.146Z,5.40
2023-08-13T05:56:19.800Z,3.25
2023-08-13T06:01:22.448Z,2.00
2023-08-13T06:06:25.165Z,4.63
2023-08-13T06:11:27.814Z,3.13
2023-08-13T06:16:30.623Z,2.00
2023-08-13T06:21:33.339Z,3.15
2023-08-13T06:26:36.654Z,3.80
2023-08-13T06:31:43.343Z,3.28
2023-08-13T06:36:46.323Z,2.75
2023-08-13T06:41:48.973Z,2.50
2023-08-13T06:46:53.959Z,4.30
2023-08-13T06:51:56.771Z,6.13
2023-08-13T06:56:59.649Z,15.38
2023-08-13T07:02:02.408Z,10.48
2023-08-13T07:07:05.300Z,6.78
2023-08-13T07:12:08.101Z,6.18
2023-08-13T07:17:10.702Z,3.42
2023-08-13T07:22:14.634Z,4.45
2023-08-13T07:27:17.871Z,3.47
2023-08-13T07:32:20.919Z,5.97
2023-08-13T07:37:25.163Z,5.13
2023-08-13T07:42:28.891Z,3.05
2023-08-13T07:47:31.545Z,3.42
2023-08-13T07:52:35.565Z,5.95
2023-08-13T07:57:38.233Z,6.10
2023-08-13T08:02:41.394Z,9.60
2023-08-13T08:07:44.043Z,7.80
2023-08-13T08:12:46.759Z,6.28
2023-08-13T08:17:49.618Z,4.78
2023-08-13T08:22:52.922Z,8.73
2023-08-13T08:27:55.567Z,3.78
2023-08-13T08:32:58.321Z,6.22
2023-08-13T08:38:01.216Z,5.78
2023-08-13T08:43:04.032Z,4.22
2023-08-13T08:48:08.112Z,3.90
2023-08-13T08:53:11.603Z,3.67
2023-08-13T08:58:14.300Z,5.22
2023-08-13T09:03:17.702Z,4.07
2023-08-13T09:08:20.527Z,4.22
2023-08-13T09:13:23.539Z,7.18
2023-08-13T09:18:26.341Z,3.60
2023-08-13T09:23:28.987Z,5.72
2023-08-13T09:28:31.668Z,7.13
2023-08-13T09:33:34.376Z,5.45
2023-08-13T09:38:37.298Z,4.70
2023-08-13T09:43:40.980Z,5.45
2023-08-13T09:48:44.860Z,2.83
2023-08-13T09:53:53.973Z,6.35
2023-08-13T09:58:56.985Z,3.25
2023-08-13T10:04:01.122Z,6.65
2023-08-13T10:09:03.965Z,3.90
2023-08-13T10:14:06.633Z,4.03
2023-08-13T10:19:10.101Z,3.22
2023-08-13T10:24:13.517Z,2.90
2023-08-13T10:29:20.406Z,2.80
2023-08-13T10:34:42.174Z,4.15
2023-08-13T10:39:46.877Z,4.95
2023-08-13T10:44:49.542Z,3.97
2023-08-13T10:49:52.234Z,4.88
2023-08-13T10:54:59.042Z,3.80
2023-08-13T11:00:03.971Z,3.78
2023-08-13T11:05:07.651Z,3.85
2023-08-13T11:10:17.358Z,3.33
2023-08-13T11:15:20.057Z,4.88
2023-08-13T11:20:22.968Z,5.28
2023-08-13T11:25:27.804Z,6.20
2023-08-13T11:30:30.504Z,3.63
2023-08-13T11:35:34.104Z,5.80
2023-08-13T11:40:38.681Z,4.07
2023-08-13T11:45:42.740Z,4.57
2023-08-13T11:50:56.273Z,4.53
2023-08-13T11:56:04.918Z,3.83
2023-08-13T12:01:07.922Z,4.18
2023-08-13T12:06:12.592Z,2.80
2023-08-13T12:11:15.969Z,3.35
2023-08-13T12:16:18.566Z,3.97
2023-08-13T12:21:21.249Z,4.78
2023-08-13T12:26:23.986Z,2.88
2023-08-13T12:31:27.984Z,4.72
2023-08-13T12:36:30.755Z,4.40
2023-08-13T12:41:39.913Z,4.40
2023-08-13T12:46:43.088Z,9.23
2023-08-13T12:51:45.775Z,11.15
2023-08-13T12:56:48.513Z,6.57
2023-08-13T13:01:51.176Z,5.95
2023-08-13T13:06:53.842Z,7.10
2023-08-13T13:11:56.497Z,3.45
2023-08-13T13:16:59.367Z,2.92
2023-08-13T13:22:02.608Z,4.03
2023-08-13T13:27:05.734Z,7.30
2023-08-13T13:32:08.471Z,3.05
2023-08-13T13:37:11.555Z,6.60
2023-08-13T13:42:14.456Z,3.53
2023-08-13T13:47:17.425Z,6.60
2023-08-13T13:52:20.424Z,3.67
2023-08-13T13:57:25.163Z,3.28
2023-08-13T14:02:27.956Z,2.25
2023-08-13T14:07:30.965Z,4.25
2023-08-13T14:12:33.756Z,2.97
2023-08-13T14:17:36.447Z,2.75
2023-08-13T14:22:39.097Z,2.78
2023-08-13T14:27:41.719Z,2.80
2023-08-13T14:32:45.245Z,4.90
2023-08-13T14:37:47.918Z,4.75
2023-08-13T14:42:50.545Z,7.65
2023-08-13T14:47:53.236Z,3.05
2023-08-13T14:52:55.948Z,3.15
2023-08-13T14:57:58.623Z,2.50
2023-08-13T15:03:01.474Z,4.65
2023-08-13T15:08:04.519Z,3.30
2023-08-13T15:13:07.280Z,3.92
2023-08-13T15:18:10.054Z,3.05
2023-08-13T15:23:12.817Z,3.28
2023-08-13T15:28:15.701Z,4.55
2023-08-13T15:33:18.352Z,4.43
2023-08-13T15:38:23.082Z,3.42
2023-08-13T15:43:26.130Z,3.55
2023-08-13T15:48:29.409Z,2.08
2023-08-13T15:53:32.187Z,2.08
2023-08-13T15:58:37.246Z,3.45
2023-08-13T16:03:41.442Z,3.17
2023-08-13T16:08:45.199Z,2.90
2023-08-13T16:13:47.855Z,4.30
2023-08-13T16:18:50.515Z,3.85
2023-08-13T16:24:04.693Z,7.00
2023-08-13T16:29:15.629Z,35.92
2023-08-13T16:34:18.307Z,34.40
2023-08-13T16:39:20.936Z,19.45
2023-08-13T16:44:24.458Z,7.43
2023-08-13T16:49:27.454Z,27.02
2023-08-13T16:54:30.103Z,17.88
2023-08-13T16:59:32.823Z,5.28
2023-08-13T17:04:35.487Z,10.05
2023-08-13T17:09:38.132Z,5.53
2023-08-13T17:14:40.776Z,4.47
2023-08-13T17:19:43.438Z,3.88
2023-08-13T17:24:46.113Z,4.00
2023-08-13T17:29:48.831Z,2.83
2023-08-13T17:34:51.534Z,4.05
2023-08-13T17:39:54.238Z,4.15
2023-08-13T17:44:57.044Z,3.88
2023-08-13T17:49:59.766Z,5.47
2023-08-13T17:55:02.479Z,3.92
2023-08-13T18:00:06.814Z,6.05
2023-08-13T18:05:18.359Z,6.20
2023-08-13T18:10:21.195Z,6.25
2023-08-13T18:15:24.484Z,4.00
2023-08-13T18:20:27.418Z,7.60
2023-08-13T18:25:30.203Z,4.00
2023-08-13T18:30:32.943Z,6.85
2023-08-13T18:35:35.679Z,4.07
2023-08-13T18:40:38.431Z,3.53
2023-08-13T18:45:41.160Z,3.33
2023-08-13T18:50:43.892Z,8.48
2023-08-13T18:55:48.686Z,4.75
2023-08-13T19:00:51.592Z,5.40
2023-08-13T19:05:54.342Z,3.58
2023-08-13T19:10:59.607Z,4.30
2023-08-13T19:16:02.336Z,4.80
2023-08-13T19:21:05.119Z,4.88
2023-08-13T19:26:07.841Z,7.13
2023-08-13T19:31:10.624Z,8.13
2023-08-13T19:36:14.242Z,7.47
2023-08-13T19:41:16.935Z,6.68
2023-08-13T19:46:19.730Z,8.43
2023-08-13T19:51:22.472Z,7.70
2023-08-13T19:56:26.415Z,12.02
2023-08-13T20:01:29.129Z,10.75
2023-08-13T20:06:31.892Z,9.25
2023-08-13T20:11:34.840Z,11.90
2023-08-13T20:16:38.971Z,19.23
2023-08-13T20:21:49.081Z,10.05
2023-08-13T20:26:52.087Z,8.10
2023-08-13T20:31:54.803Z,9.23
2023-08-13T20:36:58.034Z,8.00
2023-08-13T20:42:01.048Z,8.63
2023-08-13T20:47:03.873Z,6.65
2023-08-13T20:52:06.746Z,9.15
2023-08-13T20:57:09.406Z,6.53
2023-08-13T21:02:12.183Z,6.60
2023-08-13T21:07:14.862Z,10.80
2023-08-13T21:12:17.890Z,6.60
2023-08-13T21:17:20.779Z,5.88
2023-08-13T21:22:23.494Z,6.63
2023-08-13T21:27:26.211Z,8.20
2023-08-13T21:32:28.852Z,7.82
2023-08-13T21:37:33.008Z,9.00
2023-08-13T21:42:35.791Z,7.65
2023-08-13T21:47:38.634Z,6.75
2023-08-13T21:52:41.319Z,8.30
2023-08-13T21:57:44.008Z,4.82
